sensor_id;sensor_type;location;lat;lon;timestamp;P1;durP1;ratioP1;P2;durP2;ratioP2
67442;SDS011;54311;51.726;5.154;2023-02-28T00:02:15;16.35;;;12.80;;
67442;SDS011;54311;51.726;5.154;2023-02-28T00:04:42;13.80;;;12.60;;
67442;SDS011;54311;51.726;5.154;2023-02-28T00:07:08;12.43;;;11.52;;
67442;SDS011;54311;51.726;5.154;2023-02-28T00:09:33;13.63;;;12.35;;
67442;SDS011;54311;51.726;5.154;2023-02-28T00:11:58;12.93;;;11.65;;
67442;SDS011;54311;51.726;5.154;2023-02-28T00:14:24;13.55;;;12.23;;
67442;SDS011;54311;51.726;5.154;2023-02-28T00:16:49;13.63;;;12.35;;
67442;SDS011;54311;51.726;5.154;2023-02-28T00:19:14;13.57;;;12.20;;
67442;SDS011;54311;51.726;5.154;2023-02-28T00:21:39;13.55;;;12.45;;
67442;SDS011;54311;51.726;5.154;2023-02-28T00:24:06;13.25;;;11.95;;
67442;SDS011;54311;51.726;5.154;2023-02-28T00:26:32;13.13;;;12.02;;
67442;SDS011;54311;51.726;5.154;2023-02-28T00:28:57;13.48;;;12.23;;
67442;SDS011;54311;51.726;5.154;2023-02-28T00:31:23;13.80;;;12.60;;
67442;SDS011;54311;51.726;5.154;2023-02-28T00:33:48;12.90;;;11.75;;
67442;SDS011;54311;51.726;5.154;2023-02-28T00:36:13;13.68;;;12.50;;
67442;SDS011;54311;51.726;5.154;2023-02-28T00:38:39;13.48;;;12.27;;
67442;SDS011;54311;51.726;5.154;2023-02-28T00:41:06;13.10;;;11.93;;
67442;SDS011;54311;51.726;5.154;2023-02-28T00:43:35;13.18;;;12.00;;
67442;SDS011;54311;51.726;5.154;2023-02-28T00:46:02;13.32;;;11.93;;
67442;SDS011;54311;51.726;5.154;2023-02-28T00:48:28;14.60;;;11.38;;
67442;SDS011;54311;51.726;5.154;2023-02-28T00:50:53;13.00;;;11.80;;
67442;SDS011;54311;51.726;5.154;2023-02-28T00:53:19;12.98;;;11.02;;
67442;SDS011;54311;51.726;5.154;2023-02-28T00:55:44;17.25;;;11.30;;
67442;SDS011;54311;51.726;5.154;2023-02-28T00:58:10;12.32;;;11.25;;
67442;SDS011;54311;51.726;5.154;2023-02-28T01:00:35;11.13;;;10.13;;
67442;SDS011;54311;51.726;5.154;2023-02-28T01:03:00;12.43;;;11.18;;
67442;SDS011;54311;51.726;5.154;2023-02-28T01:05:26;12.75;;;11.30;;
67442;SDS011;54311;51.726;5.154;2023-02-28T01:07:51;12.57;;;11.25;;
67442;SDS011;54311;51.726;5.154;2023-02-28T01:10:17;12.45;;;11.43;;
67442;SDS011;54311;51.726;5.154;2023-02-28T01:12:42;11.18;;;10.18;;
67442;SDS011;54311;51.726;5.154;2023-02-28T01:15:09;11.65;;;10.68;;
67442;SDS011;54311;51.726;5.154;2023-02-28T01:17:36;12.25;;;11.05;;
67442;SDS011;54311;51.726;5.154;2023-02-28T01:20:01;14.88;;;10.07;;
67442;SDS011;54311;51.726;5.154;2023-02-28T01:22:26;11.25;;;10.45;;
67442;SDS011;54311;51.726;5.154;2023-02-28T01:24:52;12.25;;;11.05;;
67442;SDS011;54311;51.726;5.154;2023-02-28T01:27:17;13.38;;;10.70;;
67442;SDS011;54311;51.726;5.154;2023-02-28T01:29:43;11.82;;;10.70;;
67442;SDS011;54311;51.726;5.154;2023-02-28T01:32:09;11.77;;;10.70;;
67442;SDS011;54311;51.726;5.154;2023-02-28T01:34:34;11.68;;;10.68;;
67442;SDS011;54311;51.726;5.154;2023-02-28T01:36:59;13.05;;;10.52;;
67442;SDS011;54311;51.726;5.154;2023-02-28T01:39:25;16.92;;;10.90;;
67442;SDS011;54311;51.726;5.154;2023-02-28T01:41:50;10.98;;;10.05;;
67442;SDS011;54311;51.726;5.154;2023-02-28T01:47:19;10.65;;;9.75;;
67442;SDS011;54311;51.726;5.154;2023-02-28T01:49:44;11.95;;;10.82;;
67442;SDS011;54311;51.726;5.154;2023-02-28T01:52:10;10.90;;;9.98;;
67442;SDS011;54311;51.726;5.154;2023-02-28T01:54:42;10.98;;;9.93;;
67442;SDS011;54311;51.726;5.154;2023-02-28T01:57:12;12.80;;;10.38;;
67442;SDS011;54311;51.726;5.154;2023-02-28T02:02:17;11.43;;;10.32;;
67442;SDS011;54311;51.726;5.154;2023-02-28T02:05:06;11.57;;;10.52;;
67442;SDS011;54311;51.726;5.154;2023-02-28T02:07:32;10.82;;;9.93;;
67442;SDS011;54311;51.726;5.154;2023-02-28T02:10:02;12.18;;;10.60;;
67442;SDS011;54311;51.726;5.154;2023-02-28T02:15:48;12.25;;;9.82;;
67442;SDS011;54311;51.726;5.154;2023-02-28T02:32:32;11.98;;;10.75;;
67442;SDS011;54311;51.726;5.154;2023-02-28T02:35:24;12.32;;;11.43;;
67442;SDS011;54311;51.726;5.154;2023-02-28T02:40:43;13.50;;;12.15;;
67442;SDS011;54311;51.726;5.154;2023-02-28T02:43:19;11.82;;;10.82;;
67442;SDS011;54311;51.726;5.154;2023-02-28T02:45:59;12.35;;;11.25;;
67442;SDS011;54311;51.726;5.154;2023-02-28T02:48:29;12.82;;;11.73;;
67442;SDS011;54311;51.726;5.154;2023-02-28T02:50:57;12.23;;;11.18;;
67442;SDS011;54311;51.726;5.154;2023-02-28T02:53:25;15.95;;;12.52;;
67442;SDS011;54311;51.726;5.154;2023-02-28T02:55:57;16.08;;;11.35;;
67442;SDS011;54311;51.726;5.154;2023-02-28T02:58:25;12.35;;;11.27;;
67442;SDS011;54311;51.726;5.154;2023-02-28T03:00:57;13.23;;;12.18;;
67442;SDS011;54311;51.726;5.154;2023-02-28T03:03:25;12.23;;;11.13;;
67442;SDS011;54311;51.726;5.154;2023-02-28T03:05:54;12.50;;;11.10;;
67442;SDS011;54311;51.726;5.154;2023-02-28T03:08:21;12.77;;;11.57;;
67442;SDS011;54311;51.726;5.154;2023-02-28T03:10:50;12.05;;;11.02;;
67442;SDS011;54311;51.726;5.154;2023-02-28T03:18:24;11.43;;;10.40;;
67442;SDS011;54311;51.726;5.154;2023-02-28T03:27:03;12.38;;;11.10;;
67442;SDS011;54311;51.726;5.154;2023-02-28T03:29:37;11.73;;;10.80;;
67442;SDS011;54311;51.726;5.154;2023-02-28T03:32:11;10.50;;;9.70;;
67442;SDS011;54311;51.726;5.154;2023-02-28T03:34:43;12.73;;;11.63;;
67442;SDS011;54311;51.726;5.154;2023-02-28T03:37:15;11.93;;;10.60;;
67442;SDS011;54311;51.726;5.154;2023-02-28T03:39:47;11.70;;;10.50;;
67442;SDS011;54311;51.726;5.154;2023-02-28T03:42:31;11.45;;;10.52;;
67442;SDS011;54311;51.726;5.154;2023-02-28T03:45:00;11.43;;;10.35;;
67442;SDS011;54311;51.726;5.154;2023-02-28T03:48:13;12.82;;;11.50;;
67442;SDS011;54311;51.726;5.154;2023-02-28T03:50:32;11.20;;;10.30;;
67442;SDS011;54311;51.726;5.154;2023-02-28T03:53:01;12.25;;;11.00;;
67442;SDS011;54311;51.726;5.154;2023-02-28T03:55:32;12.65;;;11.35;;
67442;SDS011;54311;51.726;5.154;2023-02-28T03:58:11;12.82;;;11.70;;
67442;SDS011;54311;51.726;5.154;2023-02-28T04:00:43;12.00;;;11.00;;
67442;SDS011;54311;51.726;5.154;2023-02-28T04:03:11;11.63;;;10.48;;
67442;SDS011;54311;51.726;5.154;2023-02-28T04:05:47;11.93;;;10.73;;
67442;SDS011;54311;51.726;5.154;2023-02-28T04:08:15;11.10;;;10.13;;
67442;SDS011;54311;51.726;5.154;2023-02-28T04:10:41;13.88;;;11.48;;
67442;SDS011;54311;51.726;5.154;2023-02-28T04:13:08;11.52;;;10.57;;
67442;SDS011;54311;51.726;5.154;2023-02-28T04:15:33;15.85;;;11.45;;
67442;SDS011;54311;51.726;5.154;2023-02-28T04:17:59;12.52;;;11.32;;
67442;SDS011;54311;51.726;5.154;2023-02-28T04:20:24;12.30;;;11.05;;
67442;SDS011;54311;51.726;5.154;2023-02-28T04:22:49;12.90;;;11.63;;
67442;SDS011;54311;51.726;5.154;2023-02-28T04:25:15;11.95;;;10.77;;
67442;SDS011;54311;51.726;5.154;2023-02-28T04:27:40;12.13;;;11.13;;
67442;SDS011;54311;51.726;5.154;2023-02-28T04:30:06;11.88;;;10.77;;
67442;SDS011;54311;51.726;5.154;2023-02-28T04:32:31;12.23;;;11.15;;
67442;SDS011;54311;51.726;5.154;2023-02-28T04:34:57;12.23;;;11.23;;
67442;SDS011;54311;51.726;5.154;2023-02-28T04:37:22;13.20;;;11.32;;
67442;SDS011;54311;51.726;5.154;2023-02-28T04:39:52;14.65;;;11.82;;
67442;SDS011;54311;51.726;5.154;2023-02-28T04:42:18;13.80;;;12.38;;
67442;SDS011;54311;51.726;5.154;2023-02-28T04:44:43;12.18;;;11.02;;
67442;SDS011;54311;51.726;5.154;2023-02-28T04:47:08;13.00;;;11.77;;
67442;SDS011;54311;51.726;5.154;2023-02-28T04:49:33;13.30;;;12.07;;
67442;SDS011;54311;51.726;5.154;2023-02-28T04:51:59;12.50;;;11.27;;
67442;SDS011;54311;51.726;5.154;2023-02-28T04:54:24;13.18;;;11.88;;
67442;SDS011;54311;51.726;5.154;2023-02-28T04:56:49;13.02;;;11.80;;
67442;SDS011;54311;51.726;5.154;2023-02-28T04:59:15;13.00;;;11.75;;
67442;SDS011;54311;51.726;5.154;2023-02-28T05:01:40;12.77;;;11.68;;
67442;SDS011;54311;51.726;5.154;2023-02-28T05:04:10;12.85;;;11.73;;
67442;SDS011;54311;51.726;5.154;2023-02-28T05:06:36;13.35;;;12.13;;
67442;SDS011;54311;51.726;5.154;2023-02-28T05:09:01;11.88;;;10.63;;
67442;SDS011;54311;51.726;5.154;2023-02-28T05:11:27;12.98;;;11.85;;
67442;SDS011;54311;51.726;5.154;2023-02-28T05:13:58;13.55;;;12.35;;
67442;SDS011;54311;51.726;5.154;2023-02-28T05:16:24;12.80;;;11.65;;
67442;SDS011;54311;51.726;5.154;2023-02-28T05:18:49;11.38;;;10.35;;
67442;SDS011;54311;51.726;5.154;2023-02-28T05:21:23;12.45;;;11.35;;
67442;SDS011;54311;51.726;5.154;2023-02-28T05:23:50;11.82;;;10.93;;
67442;SDS011;54311;51.726;5.154;2023-02-28T05:26:16;12.32;;;11.27;;
67442;SDS011;54311;51.726;5.154;2023-02-28T05:28:42;11.90;;;10.63;;
67442;SDS011;54311;51.726;5.154;2023-02-28T05:31:08;14.20;;;10.35;;
67442;SDS011;54311;51.726;5.154;2023-02-28T05:33:35;12.52;;;11.07;;
67442;SDS011;54311;51.726;5.154;2023-02-28T05:36:01;12.13;;;11.20;;
67442;SDS011;54311;51.726;5.154;2023-02-28T05:38:26;12.02;;;10.70;;
67442;SDS011;54311;51.726;5.154;2023-02-28T05:40:51;12.50;;;11.55;;
67442;SDS011;54311;51.726;5.154;2023-02-28T05:43:18;11.07;;;10.27;;
67442;SDS011;54311;51.726;5.154;2023-02-28T05:45:43;11.95;;;10.75;;
67442;SDS011;54311;51.726;5.154;2023-02-28T05:48:09;12.25;;;10.95;;
67442;SDS011;54311;51.726;5.154;2023-02-28T05:50:34;11.75;;;10.52;;
67442;SDS011;54311;51.726;5.154;2023-02-28T05:52:59;15.50;;;11.32;;
67442;SDS011;54311;51.726;5.154;2023-02-28T05:55:25;11.35;;;10.38;;
67442;SDS011;54311;51.726;5.154;2023-02-28T05:57:50;11.65;;;10.55;;
67442;SDS011;54311;51.726;5.154;2023-02-28T06:00:16;11.18;;;10.18;;
67442;SDS011;54311;51.726;5.154;2023-02-28T06:02:42;11.25;;;10.25;;
67442;SDS011;54311;51.726;5.154;2023-02-28T06:05:13;10.80;;;9.75;;
67442;SDS011;54311;51.726;5.154;2023-02-28T06:07:39;11.50;;;10.48;;
67442;SDS011;54311;51.726;5.154;2023-02-28T06:10:06;10.82;;;10.02;;
67442;SDS011;54311;51.726;5.154;2023-02-28T06:12:31;10.75;;;10.02;;
67442;SDS011;54311;51.726;5.154;2023-02-28T06:14:57;13.00;;;10.20;;
67442;SDS011;54311;51.726;5.154;2023-02-28T06:17:22;11.05;;;10.15;;
67442;SDS011;54311;51.726;5.154;2023-02-28T06:19:47;11.95;;;10.15;;
67442;SDS011;54311;51.726;5.154;2023-02-28T06:22:13;11.50;;;10.52;;
67442;SDS011;54311;51.726;5.154;2023-02-28T06:24:38;11.40;;;10.38;;
67442;SDS011;54311;51.726;5.154;2023-02-28T06:27:04;11.68;;;10.68;;
67442;SDS011;54311;51.726;5.154;2023-02-28T06:29:30;11.82;;;10.73;;
67442;SDS011;54311;51.726;5.154;2023-02-28T06:31:57;12.20;;;11.20;;
67442;SDS011;54311;51.726;5.154;2023-02-28T06:34:22;11.68;;;10.77;;
67442;SDS011;54311;51.726;5.154;2023-02-28T06:36:49;11.77;;;10.80;;
67442;SDS011;54311;51.726;5.154;2023-02-28T06:39:15;12.70;;;11.40;;
67442;SDS011;54311;51.726;5.154;2023-02-28T06:41:40;13.48;;;11.15;;
67442;SDS011;54311;51.726;5.154;2023-02-28T06:44:13;12.05;;;11.05;;
67442;SDS011;54311;51.726;5.154;2023-02-28T06:46:40;12.38;;;11.35;;
67442;SDS011;54311;51.726;5.154;2023-02-28T06:49:06;11.25;;;10.45;;
67442;SDS011;54311;51.726;5.154;2023-02-28T06:51:34;12.02;;;10.88;;
67442;SDS011;54311;51.726;5.154;2023-02-28T06:54:00;11.55;;;10.48;;
67442;SDS011;54311;51.726;5.154;2023-02-28T06:56:25;10.20;;;9.40;;
67442;SDS011;54311;51.726;5.154;2023-02-28T06:58:50;9.98;;;9.02;;
67442;SDS011;54311;51.726;5.154;2023-02-28T07:01:17;9.93;;;9.02;;
67442;SDS011;54311;51.726;5.154;2023-02-28T07:03:43;9.90;;;9.13;;
67442;SDS011;54311;51.726;5.154;2023-02-28T07:06:09;10.73;;;9.35;;
67442;SDS011;54311;51.726;5.154;2023-02-28T07:08:34;10.57;;;9.57;;
67442;SDS011;54311;51.726;5.154;2023-02-28T07:11:00;10.77;;;9.88;;
67442;SDS011;54311;51.726;5.154;2023-02-28T07:13:26;10.60;;;9.63;;
67442;SDS011;54311;51.726;5.154;2023-02-28T07:16:02;11.13;;;10.30;;
67442;SDS011;54311;51.726;5.154;2023-02-28T07:18:29;11.52;;;10.52;;
67442;SDS011;54311;51.726;5.154;2023-02-28T07:20:54;11.23;;;10.40;;
67442;SDS011;54311;51.726;5.154;2023-02-28T07:23:20;11.73;;;10.52;;
67442;SDS011;54311;51.726;5.154;2023-02-28T07:25:46;11.07;;;10.25;;
67442;SDS011;54311;51.726;5.154;2023-02-28T07:28:11;11.15;;;10.20;;
67442;SDS011;54311;51.726;5.154;2023-02-28T07:30:38;11.57;;;10.60;;
67442;SDS011;54311;51.726;5.154;2023-02-28T07:33:03;11.07;;;10.27;;
67442;SDS011;54311;51.726;5.154;2023-02-28T07:35:29;10.77;;;9.73;;
67442;SDS011;54311;51.726;5.154;2023-02-28T07:37:54;11.98;;;10.98;;
67442;SDS011;54311;51.726;5.154;2023-02-28T07:40:20;12.02;;;11.13;;
67442;SDS011;54311;51.726;5.154;2023-02-28T07:42:46;9.43;;;8.82;;
67442;SDS011;54311;51.726;5.154;2023-02-28T07:45:11;10.73;;;9.80;;
67442;SDS011;54311;51.726;5.154;2023-02-28T07:47:37;12.73;;;11.52;;
67442;SDS011;54311;51.726;5.154;2023-02-28T07:50:03;10.13;;;9.40;;
67442;SDS011;54311;51.726;5.154;2023-02-28T07:52:30;11.40;;;10.55;;
67442;SDS011;54311;51.726;5.154;2023-02-28T07:54:55;11.00;;;10.00;;
67442;SDS011;54311;51.726;5.154;2023-02-28T07:57:21;12.85;;;10.45;;
67442;SDS011;54311;51.726;5.154;2023-02-28T07:59:46;10.27;;;9.20;;
67442;SDS011;54311;51.726;5.154;2023-02-28T08:02:13;9.52;;;8.48;;
67442;SDS011;54311;51.726;5.154;2023-02-28T08:04:39;9.45;;;8.75;;
67442;SDS011;54311;51.726;5.154;2023-02-28T08:07:05;8.60;;;7.90;;
67442;SDS011;54311;51.726;5.154;2023-02-28T08:09:33;8.60;;;7.70;;
67442;SDS011;54311;51.726;5.154;2023-02-28T08:11:59;9.32;;;8.63;;
67442;SDS011;54311;51.726;5.154;2023-02-28T08:14:24;8.25;;;7.75;;
67442;SDS011;54311;51.726;5.154;2023-02-28T08:16:49;8.98;;;8.10;;
67442;SDS011;54311;51.726;5.154;2023-02-28T08:19:15;7.30;;;6.70;;
67442;SDS011;54311;51.726;5.154;2023-02-28T08:21:40;8.20;;;7.70;;
67442;SDS011;54311;51.726;5.154;2023-02-28T08:24:05;7.82;;;7.30;;
67442;SDS011;54311;51.726;5.154;2023-02-28T08:26:31;7.75;;;7.32;;
67442;SDS011;54311;51.726;5.154;2023-02-28T08:28:57;7.97;;;7.38;;
67442;SDS011;54311;51.726;5.154;2023-02-28T08:31:22;10.00;;;7.25;;
67442;SDS011;54311;51.726;5.154;2023-02-28T08:33:48;7.68;;;7.28;;
67442;SDS011;54311;51.726;5.154;2023-02-28T08:36:16;7.63;;;7.13;;
67442;SDS011;54311;51.726;5.154;2023-02-28T08:38:41;7.82;;;7.28;;
67442;SDS011;54311;51.726;5.154;2023-02-28T08:41:07;7.60;;;7.15;;
67442;SDS011;54311;51.726;5.154;2023-02-28T08:43:36;7.65;;;7.25;;
67442;SDS011;54311;51.726;5.154;2023-02-28T08:46:02;8.80;;;7.90;;
67442;SDS011;54311;51.726;5.154;2023-02-28T08:48:29;7.65;;;7.15;;
67442;SDS011;54311;51.726;5.154;2023-02-28T08:50:58;8.25;;;7.75;;
67442;SDS011;54311;51.726;5.154;2023-02-28T08:53:24;7.93;;;7.10;;
67442;SDS011;54311;51.726;5.154;2023-02-28T08:55:59;6.93;;;6.32;;
67442;SDS011;54311;51.726;5.154;2023-02-28T08:58:26;5.75;;;5.40;;
67442;SDS011;54311;51.726;5.154;2023-02-28T09:00:52;6.35;;;6.05;;
67442;SDS011;54311;51.726;5.154;2023-02-28T09:03:18;5.97;;;5.68;;
67442;SDS011;54311;51.726;5.154;2023-02-28T09:05:53;6.00;;;5.70;;
67442;SDS011;54311;51.726;5.154;2023-02-28T09:08:18;6.68;;;6.38;;
67442;SDS011;54311;51.726;5.154;2023-02-28T09:10:44;8.15;;;6.47;;
67442;SDS011;54311;51.726;5.154;2023-02-28T09:13:09;6.25;;;5.88;;
67442;SDS011;54311;51.726;5.154;2023-02-28T09:15:36;7.97;;;6.60;;
67442;SDS011;54311;51.726;5.154;2023-02-28T09:18:02;6.70;;;6.30;;
67442;SDS011;54311;51.726;5.154;2023-02-28T09:20:28;7.13;;;6.82;;
67442;SDS011;54311;51.726;5.154;2023-02-28T09:22:53;6.95;;;6.55;;
67442;SDS011;54311;51.726;5.154;2023-02-28T09:25:19;7.20;;;6.60;;
67442;SDS011;54311;51.726;5.154;2023-02-28T09:27:44;6.78;;;6.38;;
67442;SDS011;54311;51.726;5.154;2023-02-28T09:30:10;6.97;;;6.50;;
67442;SDS011;54311;51.726;5.154;2023-02-28T09:32:36;6.43;;;6.13;;
67442;SDS011;54311;51.726;5.154;2023-02-28T09:35:02;6.68;;;6.38;;
67442;SDS011;54311;51.726;5.154;2023-02-28T09:37:27;6.78;;;6.40;;
67442;SDS011;54311;51.726;5.154;2023-02-28T09:39:54;7.47;;;6.97;;
67442;SDS011;54311;51.726;5.154;2023-02-28T09:42:21;6.85;;;6.55;;
67442;SDS011;54311;51.726;5.154;2023-02-28T09:44:51;6.47;;;6.07;;
67442;SDS011;54311;51.726;5.154;2023-02-28T09:52:53;6.47;;;6.03;;
67442;SDS011;54311;51.726;5.154;2023-02-28T09:55:22;5.70;;;5.40;;
67442;SDS011;54311;51.726;5.154;2023-02-28T09:57:54;6.50;;;6.03;;
67442;SDS011;54311;51.726;5.154;2023-02-28T10:05:53;6.47;;;6.07;;
67442;SDS011;54311;51.726;5.154;2023-02-28T10:11:29;6.30;;;5.90;;
67442;SDS011;54311;51.726;5.154;2023-02-28T10:14:02;6.22;;;5.93;;
67442;SDS011;54311;51.726;5.154;2023-02-28T10:19:05;6.25;;;5.95;;
67442;SDS011;54311;51.726;5.154;2023-02-28T10:21:35;6.18;;;5.97;;
67442;SDS011;54311;51.726;5.154;2023-02-28T10:24:05;6.00;;;5.80;;
67442;SDS011;54311;51.726;5.154;2023-02-28T10:26:40;6.35;;;6.10;;
67442;SDS011;54311;51.726;5.154;2023-02-28T10:29:08;6.97;;;6.57;;
67442;SDS011;54311;51.726;5.154;2023-02-28T10:31:34;6.25;;;5.95;;
67442;SDS011;54311;51.726;5.154;2023-02-28T10:34:00;6.60;;;6.05;;
67442;SDS011;54311;51.726;5.154;2023-02-28T10:36:26;7.53;;;6.88;;
67442;SDS011;54311;51.726;5.154;2023-02-28T10:38:51;7.13;;;6.63;;
67442;SDS011;54311;51.726;5.154;2023-02-28T10:41:27;6.50;;;5.95;;
67442;SDS011;54311;51.726;5.154;2023-02-28T10:44:20;5.95;;;5.60;;
67442;SDS011;54311;51.726;5.154;2023-02-28T10:46:46;6.95;;;6.00;;
67442;SDS011;54311;51.726;5.154;2023-02-28T10:49:13;6.13;;;5.70;;
67442;SDS011;54311;51.726;5.154;2023-02-28T10:51:44;5.72;;;5.53;;
67442;SDS011;54311;51.726;5.154;2023-02-28T10:54:18;5.85;;;5.55;;
67442;SDS011;54311;51.726;5.154;2023-02-28T10:59:26;6.30;;;6.03;;
67442;SDS011;54311;51.726;5.154;2023-02-28T11:01:53;8.23;;;5.93;;
67442;SDS011;54311;51.726;5.154;2023-02-28T11:07:17;6.18;;;5.85;;
67442;SDS011;54311;51.726;5.154;2023-02-28T11:09:46;6.77;;;6.37;;
67442;SDS011;54311;51.726;5.154;2023-02-28T11:12:36;6.45;;;6.05;;
67442;SDS011;54311;51.726;5.154;2023-02-28T11:15:14;6.88;;;6.47;;
67442;SDS011;54311;51.726;5.154;2023-02-28T11:20:22;6.30;;;5.80;;
67442;SDS011;54311;51.726;5.154;2023-02-28T11:22:48;6.72;;;6.43;;
67442;SDS011;54311;51.726;5.154;2023-02-28T11:25:25;6.40;;;6.10;;
67442;SDS011;54311;51.726;5.154;2023-02-28T11:27:56;6.60;;;6.25;;
67442;SDS011;54311;51.726;5.154;2023-02-28T11:32:56;6.60;;;6.20;;
67442;SDS011;54311;51.726;5.154;2023-02-28T11:35:26;6.40;;;6.05;;
67442;SDS011;54311;51.726;5.154;2023-02-28T11:37:54;6.55;;;6.25;;
67442;SDS011;54311;51.726;5.154;2023-02-28T11:43:00;6.60;;;6.10;;
67442;SDS011;54311;51.726;5.154;2023-02-28T11:48:22;6.68;;;6.20;;
67442;SDS011;54311;51.726;5.154;2023-02-28T12:02:18;6.72;;;6.32;;
67442;SDS011;54311;51.726;5.154;2023-02-28T12:08:01;6.20;;;5.90;;
67442;SDS011;54311;51.726;5.154;2023-02-28T12:24:01;6.00;;;5.70;;
67442;SDS011;54311;51.726;5.154;2023-02-28T12:26:34;6.22;;;5.82;;
67442;SDS011;54311;51.726;5.154;2023-02-28T12:35:02;6.60;;;6.20;;
67442;SDS011;54311;51.726;5.154;2023-02-28T12:37:41;6.85;;;6.45;;
67442;SDS011;54311;51.726;5.154;2023-02-28T12:40:16;6.30;;;6.00;;
67442;SDS011;54311;51.726;5.154;2023-02-28T12:42:51;7.50;;;6.20;;
67442;SDS011;54311;51.726;5.154;2023-02-28T12:45:19;7.10;;;6.50;;
67442;SDS011;54311;51.726;5.154;2023-02-28T12:47:48;6.40;;;6.10;;
67442;SDS011;54311;51.726;5.154;2023-02-28T12:50:16;6.45;;;6.05;;
67442;SDS011;54311;51.726;5.154;2023-02-28T12:53:02;7.15;;;6.38;;
67442;SDS011;54311;51.726;5.154;2023-02-28T12:58:25;7.05;;;6.50;;
67442;SDS011;54311;51.726;5.154;2023-02-28T13:11:31;6.68;;;6.07;;
67442;SDS011;54311;51.726;5.154;2023-02-28T13:14:02;7.60;;;6.88;;
67442;SDS011;54311;51.726;5.154;2023-02-28T13:16:46;7.90;;;7.30;;
67442;SDS011;54311;51.726;5.154;2023-02-28T13:19:25;6.50;;;6.10;;
67442;SDS011;54311;51.726;5.154;2023-02-28T13:21:53;7.00;;;6.53;;
67442;SDS011;54311;51.726;5.154;2023-02-28T13:24:35;7.07;;;6.68;;
67442;SDS011;54311;51.726;5.154;2023-02-28T13:29:34;7.03;;;6.65;;
67442;SDS011;54311;51.726;5.154;2023-02-28T13:34:39;7.35;;;6.80;;
67442;SDS011;54311;51.726;5.154;2023-02-28T13:39:46;6.15;;;5.85;;
67442;SDS011;54311;51.726;5.154;2023-02-28T13:47:28;6.72;;;6.32;;
67442;SDS011;54311;51.726;5.154;2023-02-28T13:50:07;7.32;;;6.72;;
67442;SDS011;54311;51.726;5.154;2023-02-28T13:55:27;6.95;;;6.65;;
67442;SDS011;54311;51.726;5.154;2023-02-28T14:06:22;6.63;;;6.22;;
67442;SDS011;54311;51.726;5.154;2023-02-28T14:11:48;6.47;;;6.18;;
67442;SDS011;54311;51.726;5.154;2023-02-28T14:17:08;7.40;;;6.80;;
67442;SDS011;54311;51.726;5.154;2023-02-28T14:19:38;7.65;;;7.10;;
67442;SDS011;54311;51.726;5.154;2023-02-28T14:25:06;7.00;;;6.70;;
67442;SDS011;54311;51.726;5.154;2023-02-28T14:38:57;6.63;;;6.32;;
67442;SDS011;54311;51.726;5.154;2023-02-28T14:41:30;6.95;;;6.55;;
67442;SDS011;54311;51.726;5.154;2023-02-28T14:44:13;7.28;;;6.82;;
67442;SDS011;54311;51.726;5.154;2023-02-28T14:46:43;8.23;;;7.72;;
67442;SDS011;54311;51.726;5.154;2023-02-28T14:49:16;12.13;;;7.38;;
67442;SDS011;54311;51.726;5.154;2023-02-28T14:51:47;6.82;;;6.47;;
67442;SDS011;54311;51.726;5.154;2023-02-28T14:54:15;7.75;;;7.25;;
67442;SDS011;54311;51.726;5.154;2023-02-28T14:56:42;7.85;;;7.15;;
67442;SDS011;54311;51.726;5.154;2023-02-28T14:59:24;8.13;;;7.63;;
67442;SDS011;54311;51.726;5.154;2023-02-28T15:04:44;8.13;;;7.63;;
67442;SDS011;54311;51.726;5.154;2023-02-28T15:07:27;7.78;;;7.38;;
67442;SDS011;54311;51.726;5.154;2023-02-28T15:12:34;7.95;;;7.35;;
67442;SDS011;54311;51.726;5.154;2023-02-28T15:14:59;6.88;;;6.40;;
67442;SDS011;54311;51.726;5.154;2023-02-28T15:17:25;7.18;;;6.30;;
67442;SDS011;54311;51.726;5.154;2023-02-28T15:19:51;6.43;;;6.13;;
67442;SDS011;54311;51.726;5.154;2023-02-28T15:22:18;7.32;;;6.93;;
67442;SDS011;54311;51.726;5.154;2023-02-28T15:24:48;7.43;;;7.03;;
67442;SDS011;54311;51.726;5.154;2023-02-28T15:29:43;6.60;;;6.30;;
67442;SDS011;54311;51.726;5.154;2023-02-28T15:35:19;7.05;;;6.43;;
67442;SDS011;54311;51.726;5.154;2023-02-28T15:40:31;7.55;;;7.00;;
67442;SDS011;54311;51.726;5.154;2023-02-28T15:43:12;8.05;;;7.55;;
67442;SDS011;54311;51.726;5.154;2023-02-28T15:46:09;6.90;;;6.57;;
67442;SDS011;54311;51.726;5.154;2023-02-28T15:48:36;7.55;;;7.05;;
67442;SDS011;54311;51.726;5.154;2023-02-28T15:51:29;7.57;;;6.85;;
67442;SDS011;54311;51.726;5.154;2023-02-28T15:54:04;7.77;;;7.33;;
67442;SDS011;54311;51.726;5.154;2023-02-28T15:56:38;7.43;;;6.85;;
67442;SDS011;54311;51.726;5.154;2023-02-28T15:59:12;7.40;;;7.00;;
67442;SDS011;54311;51.726;5.154;2023-02-28T16:01:40;7.57;;;7.18;;
67442;SDS011;54311;51.726;5.154;2023-02-28T16:04:10;7.90;;;7.50;;
67442;SDS011;54311;51.726;5.154;2023-02-28T16:06:40;7.70;;;6.70;;
67442;SDS011;54311;51.726;5.154;2023-02-28T16:09:23;7.28;;;6.90;;
67442;SDS011;54311;51.726;5.154;2023-02-28T16:11:50;7.63;;;6.90;;
67442;SDS011;54311;51.726;5.154;2023-02-28T16:14:17;7.00;;;6.50;;
67442;SDS011;54311;51.726;5.154;2023-02-28T16:16:49;8.73;;;7.88;;
67442;SDS011;54311;51.726;5.154;2023-02-28T16:19:16;7.93;;;7.22;;
67442;SDS011;54311;51.726;5.154;2023-02-28T16:21:42;7.50;;;7.10;;
67442;SDS011;54311;51.726;5.154;2023-02-28T16:24:07;8.95;;;7.72;;
67442;SDS011;54311;51.726;5.154;2023-02-28T16:26:32;9.07;;;8.18;;
67442;SDS011;54311;51.726;5.154;2023-02-28T16:28:59;10.18;;;8.80;;
67442;SDS011;54311;51.726;5.154;2023-02-28T16:31:28;9.43;;;8.70;;
67442;SDS011;54311;51.726;5.154;2023-02-28T16:33:54;10.27;;;9.50;;
67442;SDS011;54311;51.726;5.154;2023-02-28T16:36:20;10.07;;;9.25;;
67442;SDS011;54311;51.726;5.154;2023-02-28T16:38:50;9.88;;;8.98;;
67442;SDS011;54311;51.726;5.154;2023-02-28T16:41:19;10.10;;;9.15;;
67442;SDS011;54311;51.726;5.154;2023-02-28T16:43:50;9.70;;;9.00;;
67442;SDS011;54311;51.726;5.154;2023-02-28T16:46:16;8.45;;;7.90;;
67442;SDS011;54311;51.726;5.154;2023-02-28T16:48:43;10.73;;;9.75;;
67442;SDS011;54311;51.726;5.154;2023-02-28T16:51:15;11.05;;;10.18;;
67442;SDS011;54311;51.726;5.154;2023-02-28T16:53:41;11.77;;;10.85;;
67442;SDS011;54311;51.726;5.154;2023-02-28T16:56:10;15.93;;;10.40;;
67442;SDS011;54311;51.726;5.154;2023-02-28T16:58:39;12.35;;;11.23;;
67442;SDS011;54311;51.726;5.154;2023-02-28T17:01:05;10.18;;;9.50;;
67442;SDS011;54311;51.726;5.154;2023-02-28T17:03:30;13.65;;;12.45;;
67442;SDS011;54311;51.726;5.154;2023-02-28T17:05:55;22.55;;;14.88;;
67442;SDS011;54311;51.726;5.154;2023-02-28T17:08:21;20.60;;;14.40;;
67442;SDS011;54311;51.726;5.154;2023-02-28T17:10:46;14.30;;;12.80;;
67442;SDS011;54311;51.726;5.154;2023-02-28T17:13:11;16.25;;;11.70;;
67442;SDS011;54311;51.726;5.154;2023-02-28T17:15:37;11.65;;;10.55;;
67442;SDS011;54311;51.726;5.154;2023-02-28T17:18:04;11.13;;;9.60;;
67442;SDS011;54311;51.726;5.154;2023-02-28T17:20:29;14.50;;;11.25;;
67442;SDS011;54311;51.726;5.154;2023-02-28T17:22:55;12.13;;;11.13;;
67442;SDS011;54311;51.726;5.154;2023-02-28T17:25:23;12.88;;;11.85;;
67442;SDS011;54311;51.726;5.154;2023-02-28T17:27:49;13.82;;;12.73;;
67442;SDS011;54311;51.726;5.154;2023-02-28T17:30:20;13.63;;;12.32;;
67442;SDS011;54311;51.726;5.154;2023-02-28T17:32:47;11.73;;;10.73;;
67442;SDS011;54311;51.726;5.154;2023-02-28T17:35:13;12.70;;;11.68;;
67442;SDS011;54311;51.726;5.154;2023-02-28T17:37:38;11.50;;;10.60;;